sensor_id;sensor_type;location;lat;lon;timestamp;P1;P2;P0
46885;PMS5003;32622;48.202;11.326;2023-01-28T00:00:57;39;35;
46885;PMS5003;32622;48.202;11.326;2023-01-28T00:03:07;38;34;
46885;PMS5003;32622;48.202;11.326;2023-01-28T00:05:11;35;33;
46885;PMS5003;32622;48.202;11.326;2023-01-28T00:07:15;37;34;
46885;PMS5003;32622;48.202;11.326;2023-01-28T00:09:19;36;33;
46885;PMS5003;32622;48.202;11.326;2023-01-28T00:11:24;35;32;
46885;PMS5003;32622;48.202;11.326;2023-01-28T00:13:30;32;30;
46885;PMS5003;32622;48.202;11.326;2023-01-28T00:15:37;29;29;
46885;PMS5003;32622;48.202;11.326;2023-01-28T00:17:59;29;29;
46885;PMS5003;32622;48.202;11.326;2023-01-28T00:20:05;32;32;
46885;PMS5003;32622;48.202;11.326;2023-01-28T00:22:13;30;30;
46885;PMS5003;32622;48.202;11.326;2023-01-28T00:24:16;30;30;
46885;PMS5003;32622;48.202;11.326;2023-01-28T00:26:20;30;30;
46885;PMS5003;32622;48.202;11.326;2023-01-28T00:28:25;30;30;
46885;PMS5003;32622;48.202;11.326;2023-01-28T00:30:32;30;30;
46885;PMS5003;32622;48.202;11.326;2023-01-28T00:32:35;32;30;
46885;PMS5003;32622;48.202;11.326;2023-01-28T00:34:38;37;33;
46885;PMS5003;32622;48.202;11.326;2023-01-28T00:36:41;38;33;
46885;PMS5003;32622;48.202;11.326;2023-01-28T00:38:48;40;36;
46885;PMS5003;32622;48.202;11.326;2023-01-28T00:40:51;42;35;
46885;PMS5003;32622;48.202;11.326;2023-01-28T00:42:55;43;37;
46885;PMS5003;32622;48.202;11.326;2023-01-28T00:44:59;43;36;
46885;PMS5003;32622;48.202;11.326;2023-01-28T00:47:02;45;38;
46885;PMS5003;32622;48.202;11.326;2023-01-28T00:49:05;48;38;
46885;PMS5003;32622;48.202;11.326;2023-01-28T00:51:15;50;40;
46885;PMS5003;32622;48.202;11.326;2023-01-28T00:53:20;48;39;
46885;PMS5003;32622;48.202;11.326;2023-01-28T00:55:25;44;37;
46885;PMS5003;32622;48.202;11.326;2023-01-28T00:57:29;44;38;
46885;PMS5003;32622;48.202;11.326;2023-01-28T00:59:32;44;38;
46885;PMS5003;32622;48.202;11.326;2023-01-28T01:01:36;44;38;
46885;PMS5003;32622;48.202;11.326;2023-01-28T01:03:39;45;37;
46885;PMS5003;32622;48.202;11.326;2023-01-28T01:05:56;45;37;
46885;PMS5003;32622;48.202;11.326;2023-01-28T01:08:06;45;37;
46885;PMS5003;32622;48.202;11.326;2023-01-28T01:10:40;43;37;
46885;PMS5003;32622;48.202;11.326;2023-01-28T01:13:42;43;37;
46885;PMS5003;32622;48.202;11.326;2023-01-28T01:20:02;43;37;
46885;PMS5003;32622;48.202;11.326;2023-01-28T01:22:07;43;37;
46885;PMS5003;32622;48.202;11.326;2023-01-28T01:24:11;43;37;
46885;PMS5003;32622;48.202;11.326;2023-01-28T01:26:15;43;37;
46885;PMS5003;32622;48.202;11.326;2023-01-28T01:28:19;43;37;
46885;PMS5003;32622;48.202;11.326;2023-01-28T01:30:23;42;36;
46885;PMS5003;32622;48.202;11.326;2023-01-28T01:32:28;42;36;
46885;PMS5003;32622;48.202;11.326;2023-01-28T01:34:33;42;36;
46885;PMS5003;32622;48.202;11.326;2023-01-28T01:36:36;42;37;
46885;PMS5003;32622;48.202;11.326;2023-01-28T01:38:39;42;37;
46885;PMS5003;32622;48.202;11.326;2023-01-28T01:41:48;42;37;
46885;PMS5003;32622;48.202;11.326;2023-01-28T01:46:43;43;38;
46885;PMS5003;32622;48.202;11.326;2023-01-28T01:48:53;43;38;
46885;PMS5003;32622;48.202;11.326;2023-01-28T01:51:00;43;38;
46885;PMS5003;32622;48.202;11.326;2023-01-28T01:53:09;44;37;
46885;PMS5003;32622;48.202;11.326;2023-01-28T01:55:16;44;39;
46885;PMS5003;32622;48.202;11.326;2023-01-28T01:57:23;41;38;
46885;PMS5003;32622;48.202;11.326;2023-01-28T01:59:31;43;39;
46885;PMS5003;32622;48.202;11.326;2023-01-28T02:01:37;42;38;
46885;PMS5003;32622;48.202;11.326;2023-01-28T02:03:42;45;40;
46885;PMS5003;32622;48.202;11.326;2023-01-28T02:05:53;45;39;
46885;PMS5003;32622;48.202;11.326;2023-01-28T02:07:58;43;39;
46885;PMS5003;32622;48.202;11.326;2023-01-28T02:10:03;43;38;
46885;PMS5003;32622;48.202;11.326;2023-01-28T02:12:10;43;40;
46885;PMS5003;32622;48.202;11.326;2023-01-28T02:14:18;42;40;
46885;PMS5003;32622;48.202;11.326;2023-01-28T02:16:23;41;39;
46885;PMS5003;32622;48.202;11.326;2023-01-28T02:18:28;41;39;
46885;PMS5003;32622;48.202;11.326;2023-01-28T02:20:35;41;39;
46885;PMS5003;32622;48.202;11.326;2023-01-28T02:25:30;43;39;
46885;PMS5003;32622;48.202;11.326;2023-01-28T02:27:52;43;39;
46885;PMS5003;32622;48.202;11.326;2023-01-28T02:30:11;42;38;
46885;PMS5003;32622;48.202;11.326;2023-01-28T02:32:23;42;38;
46885;PMS5003;32622;48.202;11.326;2023-01-28T02:34:34;42;38;
46885;PMS5003;32622;48.202;11.326;2023-01-28T02:36:44;46;41;
46885;PMS5003;32622;48.202;11.326;2023-01-28T02:38:52;46;41;
46885;PMS5003;32622;48.202;11.326;2023-01-28T02:41:02;46;41;
46885;PMS5003;32622;48.202;11.326;2023-01-28T02:43:09;44;39;
46885;PMS5003;32622;48.202;11.326;2023-01-28T02:45:15;46;40;
46885;PMS5003;32622;48.202;11.326;2023-01-28T02:47:23;46;39;
46885;PMS5003;32622;48.202;11.326;2023-01-28T02:49:29;46;39;
46885;PMS5003;32622;48.202;11.326;2023-01-28T02:51:42;48;38;
46885;PMS5003;32622;48.202;11.326;2023-01-28T02:53:56;48;39;
46885;PMS5003;32622;48.202;11.326;2023-01-28T02:56:09;47;38;
46885;PMS5003;32622;48.202;11.326;2023-01-28T02:58:22;44;38;
46885;PMS5003;32622;48.202;11.326;2023-01-28T03:00:39;43;38;
46885;PMS5003;32622;48.202;11.326;2023-01-28T03:02:49;40;36;
46885;PMS5003;32622;48.202;11.326;2023-01-28T03:05:01;40;37;
46885;PMS5003;32622;48.202;11.326;2023-01-28T03:07:50;37;33;
46885;PMS5003;32622;48.202;11.326;2023-01-28T03:09:55;37;32;
46885;PMS5003;32622;48.202;11.326;2023-01-28T03:12:03;37;32;
46885;PMS5003;32622;48.202;11.326;2023-01-28T03:14:12;37;32;
46885;PMS5003;32622;48.202;11.326;2023-01-28T03:16:18;39;32;
46885;PMS5003;32622;48.202;11.326;2023-01-28T03:18:22;39;32;
46885;PMS5003;32622;48.202;11.326;2023-01-28T03:20:32;39;32;
46885;PMS5003;32622;48.202;11.326;2023-01-28T03:22:40;40;31;
46885;PMS5003;32622;48.202;11.326;2023-01-28T03:24:48;40;31;
46885;PMS5003;32622;48.202;11.326;2023-01-28T03:26:55;40;31;
46885;PMS5003;32622;48.202;11.326;2023-01-28T03:29:05;41;31;
46885;PMS5003;32622;48.202;11.326;2023-01-28T03:31:12;41;31;
46885;PMS5003;32622;48.202;11.326;2023-01-28T03:33:27;41;32;
46885;PMS5003;32622;48.202;11.326;2023-01-28T03:35:33;38;33;
46885;PMS5003;32622;48.202;11.326;2023-01-28T03:37:39;38;33;
46885;PMS5003;32622;48.202;11.326;2023-01-28T03:39:43;38;33;
46885;PMS5003;32622;48.202;11.326;2023-01-28T03:42:10;38;33;
46885;PMS5003;32622;48.202;11.326;2023-01-28T03:44:41;38;33;
46885;PMS5003;32622;48.202;11.326;2023-01-28T03:46:51;38;33;
46885;PMS5003;32622;48.202;11.326;2023-01-28T03:48:58;39;33;
46885;PMS5003;32622;48.202;11.326;2023-01-28T03:51:03;39;33;
46885;PMS5003;32622;48.202;11.326;2023-01-28T03:53:07;39;33;
46885;PMS5003;32622;48.202;11.326;2023-01-28T03:55:10;40;33;
46885;PMS5003;32622;48.202;11.326;2023-01-28T03:57:14;40;33;
46885;PMS5003;32622;48.202;11.326;2023-01-28T03:59:19;40;33;
46885;PMS5003;32622;48.202;11.326;2023-01-28T04:01:25;40;33;
46885;PMS5003;32622;48.202;11.326;2023-01-28T04:03:42;40;33;
46885;PMS5003;32622;48.202;11.326;2023-01-28T04:05:57;40;33;
46885;PMS5003;32622;48.202;11.326;2023-01-28T04:08:01;39;33;
46885;PMS5003;32622;48.202;11.326;2023-01-28T04:10:05;39;33;
46885;PMS5003;32622;48.202;11.326;2023-01-28T04:12:09;39;33;
46885;PMS5003;32622;48.202;11.326;2023-01-28T04:14:13;38;31;
46885;PMS5003;32622;48.202;11.326;2023-01-28T04:16:17;38;31;
46885;PMS5003;32622;48.202;11.326;2023-01-28T04:18:21;38;31;
46885;PMS5003;32622;48.202;11.326;2023-01-28T04:20:24;39;33;
46885;PMS5003;32622;48.202;11.326;2023-01-28T04:22:48;37;33;
46885;PMS5003;32622;48.202;11.326;2023-01-28T04:24:53;35;33;
46885;PMS5003;32622;48.202;11.326;2023-01-28T04:27:03;36;34;
46885;PMS5003;32622;48.202;11.326;2023-01-28T04:29:32;37;34;
46885;PMS5003;32622;48.202;11.326;2023-01-28T04:36:47;40;37;
46885;PMS5003;32622;48.202;11.326;2023-01-28T04:38:52;39;36;
46885;PMS5003;32622;48.202;11.326;2023-01-28T04:40:56;39;36;
46885;PMS5003;32622;48.202;11.326;2023-01-28T04:43:00;39;36;
46885;PMS5003;32622;48.202;11.326;2023-01-28T04:45:15;41;36;
46885;PMS5003;32622;48.202;11.326;2023-01-28T04:47:26;41;36;
46885;PMS5003;32622;48.202;11.326;2023-01-28T04:49:29;41;36;
46885;PMS5003;32622;48.202;11.326;2023-01-28T04:51:32;40;35;
46885;PMS5003;32622;48.202;11.326;2023-01-28T04:53:35;40;35;
46885;PMS5003;32622;48.202;11.326;2023-01-28T04:56:04;40;35;
46885;PMS5003;32622;48.202;11.326;2023-01-28T04:58:09;39;35;
46885;PMS5003;32622;48.202;11.326;2023-01-28T05:00:26;39;35;
46885;PMS5003;32622;48.202;11.326;2023-01-28T05:11:39;31;30;
46885;PMS5003;32622;48.202;11.326;2023-01-28T05:13:44;32;31;
46885;PMS5003;32622;48.202;11.326;2023-01-28T05:15:51;33;32;
46885;PMS5003;32622;48.202;11.326;2023-01-28T05:17:56;33;32;
46885;PMS5003;32622;48.202;11.326;2023-01-28T05:20:03;35;33;
46885;PMS5003;32622;48.202;11.326;2023-01-28T05:22:07;33;32;
46885;PMS5003;32622;48.202;11.326;2023-01-28T05:24:10;33;31;
46885;PMS5003;32622;48.202;11.326;2023-01-28T05:26:13;34;33;
46885;PMS5003;32622;48.202;11.326;2023-01-28T05:28:17;35;34;
46885;PMS5003;32622;48.202;11.326;2023-01-28T05:30:20;34;33;
46885;PMS5003;32622;48.202;11.326;2023-01-28T05:32:24;35;34;
46885;PMS5003;32622;48.202;11.326;2023-01-28T05:34:27;35;34;
46885;PMS5003;32622;48.202;11.326;2023-01-28T05:36:30;35;34;
46885;PMS5003;32622;48.202;11.326;2023-01-28T05:38:33;35;35;
46885;PMS5003;32622;48.202;11.326;2023-01-28T05:40:36;35;35;
46885;PMS5003;32622;48.202;11.326;2023-01-28T05:42:39;35;35;
46885;PMS5003;32622;48.202;11.326;2023-01-28T05:44:43;36;35;
46885;PMS5003;32622;48.202;11.326;2023-01-28T05:46:46;36;35;
46885;PMS5003;32622;48.202;11.326;2023-01-28T05:49:08;36;35;
46885;PMS5003;32622;48.202;11.326;2023-01-28T05:51:11;37;35;
46885;PMS5003;32622;48.202;11.326;2023-01-28T05:53:14;37;35;
46885;PMS5003;32622;48.202;11.326;2023-01-28T05:55:18;37;35;
46885;PMS5003;32622;48.202;11.326;2023-01-28T05:57:21;39;37;
46885;PMS5003;32622;48.202;11.326;2023-01-28T05:59:25;39;37;
46885;PMS5003;32622;48.202;11.326;2023-01-28T06:02:22;39;37;
46885;PMS5003;32622;48.202;11.326;2023-01-28T06:04:34;40;37;
46885;PMS5003;32622;48.202;11.326;2023-01-28T06:06:58;40;37;
46885;PMS5003;32622;48.202;11.326;2023-01-28T06:09:03;40;37;
46885;PMS5003;32622;48.202;11.326;2023-01-28T06:11:06;39;36;
46885;PMS5003;32622;48.202;11.326;2023-01-28T06:13:09;39;36;
46885;PMS5003;32622;48.202;11.326;2023-01-28T06:40:14;41;34;
46885;PMS5003;32622;48.202;11.326;2023-01-28T06:42:18;41;34;
46885;PMS5003;32622;48.202;11.326;2023-01-28T06:44:21;41;34;
46885;PMS5003;32622;48.202;11.326;2023-01-28T06:46:25;41;34;
46885;PMS5003;32622;48.202;11.326;2023-01-28T06:48:28;41;34;
46885;PMS5003;32622;48.202;11.326;2023-01-28T06:50:32;41;34;
46885;PMS5003;32622;48.202;11.326;2023-01-28T06:52:37;41;34;
46885;PMS5003;32622;48.202;11.326;2023-01-28T06:54:41;41;34;
46885;PMS5003;32622;48.202;11.326;2023-01-28T06:56:45;41;34;
46885;PMS5003;32622;48.202;11.326;2023-01-28T06:58:49;40;33;
46885;PMS5003;32622;48.202;11.326;2023-01-28T07:03:30;38;34;
46885;PMS5003;32622;48.202;11.326;2023-01-28T07:05:33;38;34;
46885;PMS5003;32622;48.202;11.326;2023-01-28T07:07:36;38;34;
46885;PMS5003;32622;48.202;11.326;2023-01-28T07:09:40;38;34;
46885;PMS5003;32622;48.202;11.326;2023-01-28T07:11:43;38;34;
46885;PMS5003;32622;48.202;11.326;2023-01-28T07:13:46;38;34;
46885;PMS5003;32622;48.202;11.326;2023-01-28T07:15:49;38;35;
46885;PMS5003;32622;48.202;11.326;2023-01-28T07:17:53;38;35;
46885;PMS5003;32622;48.202;11.326;2023-01-28T07:19:56;38;35;
46885;PMS5003;32622;48.202;11.326;2023-01-28T07:21:59;39;36;
46885;PMS5003;32622;48.202;11.326;2023-01-28T07:24:03;39;36;
46885;PMS5003;32622;48.202;11.326;2023-01-28T07:26:08;39;36;
46885;PMS5003;32622;48.202;11.326;2023-01-28T07:28:12;41;36;
46885;PMS5003;32622;48.202;11.326;2023-01-28T07:30:16;41;36;
46885;PMS5003;32622;48.202;11.326;2023-01-28T07:32:21;41;36;
46885;PMS5003;32622;48.202;11.326;2023-01-28T07:34:25;38;36;
46885;PMS5003;32622;48.202;11.326;2023-01-28T07:36:29;38;36;
46885;PMS5003;32622;48.202;11.326;2023-01-28T07:38:34;38;36;
46885;PMS5003;32622;48.202;11.326;2023-01-28T07:40:37;37;35;
46885;PMS5003;32622;48.202;11.326;2023-01-28T07:42:43;37;35;
46885;PMS5003;32622;48.202;11.326;2023-01-28T07:44:48;37;35;
46885;PMS5003;32622;48.202;11.326;2023-01-28T07:46:51;39;37;
46885;PMS5003;32622;48.202;11.326;2023-01-28T07:48:54;42;38;
46885;PMS5003;32622;48.202;11.326;2023-01-28T07:50:59;41;38;
46885;PMS5003;32622;48.202;11.326;2023-01-28T07:53:03;39;37;
46885;PMS5003;32622;48.202;11.326;2023-01-28T07:55:08;40;36;
46885;PMS5003;32622;48.202;11.326;2023-01-28T07:57:12;40;36;
46885;PMS5003;32622;48.202;11.326;2023-01-28T07:59:15;40;36;
46885;PMS5003;32622;48.202;11.326;2023-01-28T08:01:18;40;36;
46885;PMS5003;32622;48.202;11.326;2023-01-28T08:03:21;40;36;
46885;PMS5003;32622;48.202;11.326;2023-01-28T08:05:25;45;39;
46885;PMS5003;32622;48.202;11.326;2023-01-28T08:07:32;44;38;
46885;PMS5003;32622;48.202;11.326;2023-01-28T08:09:35;42;36;
46885;PMS5003;32622;48.202;11.326;2023-01-28T08:11:46;42;36;
46885;PMS5003;32622;48.202;11.326;2023-01-28T08:13:50;42;36;
46885;PMS5003;32622;48.202;11.326;2023-01-28T08:15:59;42;36;
46885;PMS5003;32622;48.202;11.326;2023-01-28T08:18:16;42;35;
46885;PMS5003;32622;48.202;11.326;2023-01-28T08:20:21;42;35;
46885;PMS5003;32622;48.202;11.326;2023-01-28T08:22:27;42;35;
46885;PMS5003;32622;48.202;11.326;2023-01-28T08:24:39;43;36;
46885;PMS5003;32622;48.202;11.326;2023-01-28T08:30:16;41;36;
46885;PMS5003;32622;48.202;11.326;2023-01-28T08:33:39;41;36;
46885;PMS5003;32622;48.202;11.326;2023-01-28T08:35:43;40;36;
46885;PMS5003;32622;48.202;11.326;2023-01-28T08:37:46;39;35;
46885;PMS5003;32622;48.202;11.326;2023-01-28T08:39:55;39;35;
46885;PMS5003;32622;48.202;11.326;2023-01-28T08:41:58;39;35;
46885;PMS5003;32622;48.202;11.326;2023-01-28T08:44:02;39;35;
46885;PMS5003;32622;48.202;11.326;2023-01-28T08:46:05;39;35;
46885;PMS5003;32622;48.202;11.326;2023-01-28T08:51:20;41;37;
46885;PMS5003;32622;48.202;11.326;2023-01-28T08:54:39;41;37;
46885;PMS5003;32622;48.202;11.326;2023-01-28T08:56:42;41;38;
46885;PMS5003;32622;48.202;11.326;2023-01-28T08:58:46;42;39;
46885;PMS5003;32622;48.202;11.326;2023-01-28T09:00:49;42;39;
46885;PMS5003;32622;48.202;11.326;2023-01-28T09:02:53;40;37;
46885;PMS5003;32622;48.202;11.326;2023-01-28T09:05:04;39;36;
46885;PMS5003;32622;48.202;11.326;2023-01-28T09:07:08;39;36;
46885;PMS5003;32622;48.202;11.326;2023-01-28T09:09:11;39;33;
46885;PMS5003;32622;48.202;11.326;2023-01-28T09:11:15;39;33;
46885;PMS5003;32622;48.202;11.326;2023-01-28T09:13:21;39;33;
46885;PMS5003;32622;48.202;11.326;2023-01-28T09:15:26;38;32;
46885;PMS5003;32622;48.202;11.326;2023-01-28T09:17:30;38;32;
46885;PMS5003;32622;48.202;11.326;2023-01-28T09:19:34;38;32;
46885;PMS5003;32622;48.202;11.326;2023-01-28T09:21:38;37;32;
46885;PMS5003;32622;48.202;11.326;2023-01-28T09:23:41;37;32;
46885;PMS5003;32622;48.202;11.326;2023-01-28T09:25:44;37;32;
46885;PMS5003;32622;48.202;11.326;2023-01-28T09:27:47;35;32;
46885;PMS5003;32622;48.202;11.326;2023-01-28T09:29:49;35;32;
46885;PMS5003;32622;48.202;11.326;2023-01-28T09:31:52;35;32;
46885;PMS5003;32622;48.202;11.326;2023-01-28T09:33:55;34;31;
46885;PMS5003;32622;48.202;11.326;2023-01-28T09:35:58;34;31;
46885;PMS5003;32622;48.202;11.326;2023-01-28T09:38:01;34;31;
46885;PMS5003;32622;48.202;11.326;2023-01-28T09:40:05;35;31;
46885;PMS5003;32622;48.202;11.326;2023-01-28T09:42:22;35;31;
46885;PMS5003;32622;48.202;11.326;2023-01-28T09:45:04;35;31;
46885;PMS5003;32622;48.202;11.326;2023-01-28T09:47:18;35;31;
46885;PMS5003;32622;48.202;11.326;2023-01-28T09:52:11;41;34;
46885;PMS5003;32622;48.202;11.326;2023-01-28T09:54:20;41;34;
46885;PMS5003;32622;48.202;11.326;2023-01-28T09:56:30;40;33;
46885;PMS5003;32622;48.202;11.326;2023-01-28T09:58:44;40;33;
46885;PMS5003;32622;48.202;11.326;2023-01-28T10:00:49;40;33;
46885;PMS5003;32622;48.202;11.326;2023-01-28T10:03:16;39;34;
46885;PMS5003;32622;48.202;11.326;2023-01-28T10:06:22;40;34;
46885;PMS5003;32622;48.202;11.326;2023-01-28T10:08:35;40;34;
46885;PMS5003;32622;48.202;11.326;2023-01-28T10:10:52;40;34;
46885;PMS5003;32622;48.202;11.326;2023-01-28T10:13:09;39;35;
46885;PMS5003;32622;48.202;11.326;2023-01-28T10:15:26;40;35;
46885;PMS5003;32622;48.202;11.326;2023-01-28T10:17:44;41;37;
46885;PMS5003;32622;48.202;11.326;2023-01-28T10:19:50;41;36;
46885;PMS5003;32622;48.202;11.326;2023-01-28T10:21:58;41;35;
46885;PMS5003;32622;48.202;11.326;2023-01-28T10:27:59;38;34;
46885;PMS5003;32622;48.202;11.326;2023-01-28T10:30:23;38;34;
46885;PMS5003;32622;48.202;11.326;2023-01-28T10:32:29;36;35;
46885;PMS5003;32622;48.202;11.326;2023-01-28T10:34:33;36;35;
46885;PMS5003;32622;48.202;11.326;2023-01-28T10:36:35;36;35;
46885;PMS5003;32622;48.202;11.326;2023-01-28T10:38:38;37;36;
46885;PMS5003;32622;48.202;11.326;2023-01-28T10:40:41;37;36;
46885;PMS5003;32622;48.202;11.326;2023-01-28T10:42:46;37;36;
46885;PMS5003;32622;48.202;11.326;2023-01-28T10:44:49;37;36;
46885;PMS5003;32622;48.202;11.326;2023-01-28T10:46:53;37;36;
46885;PMS5003;32622;48.202;11.326;2023-01-28T10:49:03;37;36;
46885;PMS5003;32622;48.202;11.326;2023-01-28T10:51:14;39;37;
46885;PMS5003;32622;48.202;11.326;2023-01-28T10:53:16;40;38;
46885;PMS5003;32622;48.202;11.326;2023-01-28T10:55:19;40;38;
46885;PMS5003;32622;48.202;11.326;2023-01-28T10:57:26;39;38;
46885;PMS5003;32622;48.202;11.326;2023-01-28T10:59:32;38;37;
46885;PMS5003;32622;48.202;11.326;2023-01-28T11:02:39;37;36;
46885;PMS5003;32622;48.202;11.326;2023-01-28T11:04:43;37;36;
46885;PMS5003;32622;48.202;11.326;2023-01-28T11:06:55;37;36;
46885;PMS5003;32622;48.202;11.326;2023-01-28T11:09:00;36;35;
46885;PMS5003;32622;48.202;11.326;2023-01-28T11:11:12;36;35;
46885;PMS5003;32622;48.202;11.326;2023-01-28T11:13:16;36;35;
46885;PMS5003;32622;48.202;11.326;2023-01-28T11:15:20;34;33;
46885;PMS5003;32622;48.202;11.326;2023-01-28T11:17:24;34;33;
46885;PMS5003;32622;48.202;11.326;2023-01-28T11:19:33;34;33;
46885;PMS5003;32622;48.202;11.326;2023-01-28T11:21:37;35;34;
46885;PMS5003;32622;48.202;11.326;2023-01-28T11:23:46;35;34;
46885;PMS5003;32622;48.202;11.326;2023-01-28T11:26:01;35;34;
46885;PMS5003;32622;48.202;11.326;2023-01-28T11:28:13;34;33;
46885;PMS5003;32622;48.202;11.326;2023-01-28T11:30:21;34;33;
46885;PMS5003;32622;48.202;11.326;2023-01-28T11:32:27;34;33;
46885;PMS5003;32622;48.202;11.326;2023-01-28T11:34:33;34;33;
46885;PMS5003;32622;48.202;11.326;2023-01-28T11:36:36;33;31;
46885;PMS5003;32622;48.202;11.326;2023-01-28T11:38:51;31;30;
46885;PMS5003;32622;48.202;11.326;2023-01-28T11:40:57;31;29;
46885;PMS5003;32622;48.202;11.326;2023-01-28T11:43:00;31;28;
46885;PMS5003;32622;48.202;11.326;2023-01-28T11:45:04;31;28;
46885;PMS5003;32622;48.202;11.326;2023-01-28T11:47:22;30;28;
46885;PMS5003;32622;48.202;11.326;2023-01-28T11:49:40;31;29;
46885;PMS5003;32622;48.202;11.326;2023-01-28T11:51:53;31;28;
46885;PMS5003;32622;48.202;11.326;2023-01-28T11:54:08;32;29;
46885;PMS5003;32622;48.202;11.326;2023-01-28T11:56:28;32;29;
46885;PMS5003;32622;48.202;11.326;2023-01-28T11:58:43;35;31;
46885;PMS5003;32622;48.202;11.326;2023-01-28T12:01:00;36;32;
46885;PMS5003;32622;48.202;11.326;2023-01-28T12:03:15;36;32;
46885;PMS5003;32622;48.202;11.326;2023-01-28T12:05:54;37;33;
46885;PMS5003;32622;48.202;11.326;2023-01-28T12:08:09;37;34;
46885;PMS5003;32622;48.202;11.326;2023-01-28T12:10:21;37;34;
46885;PMS5003;32622;48.202;11.326;2023-01-28T12:12:41;36;33;
46885;PMS5003;32622;48.202;11.326;2023-01-28T12:14:59;37;33;
46885;PMS5003;32622;48.202;11.326;2023-01-28T12:17:22;37;33;
46885;PMS5003;32622;48.202;11.326;2023-01-28T12:19:37;37;33;
46885;PMS5003;32622;48.202;11.326;2023-01-28T12:21:54;44;34;
46885;PMS5003;32622;48.202;11.326;2023-01-28T12:24:16;44;35;
46885;PMS5003;32622;48.202;11.326;2023-01-28T12:26:39;46;35;
46885;PMS5003;32622;48.202;11.326;2023-01-28T12:28:56;48;36;
46885;PMS5003;32622;48.202;11.326;2023-01-28T12:31:11;47;36;
46885;PMS5003;32622;48.202;11.326;2023-01-28T12:33:32;45;34;
46885;PMS5003;32622;48.202;11.326;2023-01-28T12:35:52;44;33;
46885;PMS5003;32622;48.202;11.326;2023-01-28T12:38:06;42;31;
46885;PMS5003;32622;48.202;11.326;2023-01-28T12:40:18;40;31;
46885;PMS5003;32622;48.202;11.326;2023-01-28T12:42:34;39;31;
46885;PMS5003;32622;48.202;11.326;2023-01-28T12:44:43;34;31;
46885;PMS5003;32622;48.202;11.326;2023-01-28T12:46:52;35;31;
46885;PMS5003;32622;48.202;11.326;2023-01-28T12:48:59;32;29;
46885;PMS5003;32622;48.202;11.326;2023-01-28T12:51:08;32;29;
46885;PMS5003;32622;48.202;11.326;2023-01-28T12:53:18;32;29;
46885;PMS5003;32622;48.202;11.326;2023-01-28T12:55:32;31;29;
46885;PMS5003;32622;48.202;11.326;2023-01-28T13:06:53;38;34;
46885;PMS5003;32622;48.202;11.326;2023-01-28T13:09:02;38;34;
46885;PMS5003;32622;48.202;11.326;2023-01-28T13:11:16;35;32;
46885;PMS5003;32622;48.202;11.326;2023-01-28T13:13:21;35;32;
46885;PMS5003;32622;48.202;11.326;2023-01-28T13:15:29;35;32;
46885;PMS5003;32622;48.202;11.326;2023-01-28T13:17:33;33;31;
46885;PMS5003;32622;48.202;11.326;2023-01-28T13:19:37;33;31;
46885;PMS5003;32622;48.202;11.326;2023-01-28T13:21:42;33;31;
46885;PMS5003;32622;48.202;11.326;2023-01-28T13:23:47;33;31;
46885;PMS5003;32622;48.202;11.326;2023-01-28T13:25:52;33;31;
46885;PMS5003;32622;48.202;11.326;2023-01-28T13:27:57;33;31;
46885;PMS5003;32622;48.202;11.326;2023-01-28T13:30:04;32;31;
46885;PMS5003;32622;48.202;11.326;2023-01-28T13:32:27;32;31;
46885;PMS5003;32622;48.202;11.326;2023-01-28T13:34:34;32;31;
46885;PMS5003;32622;48.202;11.326;2023-01-28T13:36:42;31;30;
46885;PMS5003;32622;48.202;11.326;2023-01-28T13:38:47;31;30;
46885;PMS5003;32622;48.202;11.326;2023-01-28T13:41:00;31;30;
46885;PMS5003;32622;48.202;11.326;2023-01-28T13:43:04;34;31;
46885;PMS5003;32622;48.202;11.326;2023-01-28T13:45:26;37;32;
46885;PMS5003;32622;48.202;11.326;2023-01-28T13:47:31;36;33;
46885;PMS5003;32622;48.202;11.326;2023-01-28T13:49:37;36;33;
46885;PMS5003;32622;48.202;11.326;2023-01-28T13:51:49;36;33;
46885;PMS5003;32622;48.202;11.326;2023-01-28T13:54:00;36;33;
46885;PMS5003;32622;48.202;11.326;2023-01-28T13:56:07;37;34;
46885;PMS5003;32622;48.202;11.326;2023-01-28T13:58:27;37;34;
46885;PMS5003;32622;48.202;11.326;2023-01-28T14:00:53;38;35;
46885;PMS5003;32622;48.202;11.326;2023-01-28T14:03:41;39;36;
46885;PMS5003;32622;48.202;11.326;2023-01-28T14:06:03;37;35;
46885;PMS5003;32622;48.202;11.326;2023-01-28T14:08:26;35;35;
46885;PMS5003;32622;48.202;11.326;2023-01-28T14:11:06;34;34;
46885;PMS5003;32622;48.202;11.326;2023-01-28T14:13:22;34;34;
46885;PMS5003;32622;48.202;11.326;2023-01-28T14:15:56;34;34;
46885;PMS5003;32622;48.202;11.326;2023-01-28T14:18:13;35;34;
46885;PMS5003;32622;48.202;11.326;2023-01-28T14:20:25;35;34;
46885;PMS5003;32622;48.202;11.326;2023-01-28T14:22:31;35;34;
46885;PMS5003;32622;48.202;11.326;2023-01-28T14:24:36;36;34;
46885;PMS5003;32622;48.202;11.326;2023-01-28T14:26:42;36;34;
46885;PMS5003;32622;48.202;11.326;2023-01-28T14:28:54;36;34;
46885;PMS5003;32622;48.202;11.326;2023-01-28T14:31:07;36;35;
46885;PMS5003;32622;48.202;11.326;2023-01-28T14:33:16;36;35;
46885;PMS5003;32622;48.202;11.326;2023-01-28T14:35:21;36;35;
46885;PMS5003;32622;48.202;11.326;2023-01-28T14:37:30;38;34;
46885;PMS5003;32622;48.202;11.326;2023-01-28T14:39:38;38;34;
46885;PMS5003;32622;48.202;11.326;2023-01-28T14:41:46;38;34;
46885;PMS5003;32622;48.202;11.326;2023-01-28T14:43:50;36;32;
46885;PMS5003;32622;48.202;11.326;2023-01-28T14:46:00;36;32;
46885;PMS5003;32622;48.202;11.326;2023-01-28T14:48:20;36;32;
46885;PMS5003;32622;48.202;11.326;2023-01-28T14:50:28;36;32;
46885;PMS5003;32622;48.202;11.326;2023-01-28T14:52:43;35;31;
46885;PMS5003;32622;48.202;11.326;2023-01-28T14:54:59;37;31;
46885;PMS5003;32622;48.202;11.326;2023-01-28T14:57:17;38;32;
46885;PMS5003;32622;48.202;11.326;2023-01-28T14:59:29;39;33;
46885;PMS5003;32622;48.202;11.326;2023-01-28T15:01:42;41;35;
46885;PMS5003;32622;48.202;11.326;2023-01-28T15:03:47;42;35;
46885;PMS5003;32622;48.202;11.326;2023-01-28T15:06:00;43;35;
46885;PMS5003;32622;48.202;11.326;2023-01-28T15:08:05;42;36;
46885;PMS5003;32622;48.202;11.326;2023-01-28T15:10:13;45;39;
46885;PMS5003;32622;48.202;11.326;2023-01-28T15:12:17;47;40;
46885;PMS5003;32622;48.202;11.326;2023-01-28T15:14:24;47;40;
46885;PMS5003;32622;48.202;11.326;2023-01-28T15:16:31;48;43;
46885;PMS5003;32622;48.202;11.326;2023-01-28T15:18:36;48;42;
46885;PMS5003;32622;48.202;11.326;2023-01-28T15:20:43;48;42;